Аэропорт: Павлодар. Павлодар

ICAO: UASP

METAR:
2024-04-22 21:30:00
UASP 222130Z 27003MPS CAVOK 05/01 Q1022 NOSIG RMK QFE756/1008
TAF:
2024-04-22 20:00:00
TAF UASP 222000Z 2221/2306 26003MPS 9999 SCT020 
  TEMPO 2221/2224 3100 FU SCT011 
  TEMPO 2300/2306 3100 FU SCT011